.
WxDataArchive / Data Records for 2010-03-11
2010-03-10 March 2010 2010-03-12

Data Records for Thursday, 11 March 2010

Time	Temp	Chill	HIndex	Humid	Dewpt	 Wind 	HiWind	WindDir	Rain 	Barom 
-----	----	-----	------	-----	-----	------	------	-------	-----	----- 
00:00	47.1	47.1	47.1	93	45.2	0	0	---	0.00	29.767 
00:05	47.7	47.7	47.7	93	45.8	0	1	135	0.00	29.767 
00:10	48.2	48.2	48.2	93	46.3	0	0	---	0.00	29.767 
00:15	48.5	48.5	48.5	92	46.3	0	0	---	0.00	29.763 
00:20	48.8	48.8	48.8	92	46.6	0	1	135	0.00	29.763 
00:25	48.9	48.9	48.9	92	46.7	0	1	135	0.00	29.763 
00:30	49.1	49.1	49.1	92	46.9	0	1	135	0.00	29.762 
00:35	49.4	49.4	49.4	91	46.9	0	2	135	0.00	29.762 
00:40	49.5	49.5	49.5	90	46.7	0	1	135	0.00	29.762 
00:45	49.8	49.8	49.8	90	47.0	0	3	90	0.00	29.761 
00:50	50.1	50.1	50.1	89	47.0	1	3	90	0.00	29.761 
00:55	49.9	49.9	49.9	88	46.5	0	2	90	0.00	29.761 
01:00	49.6	49.6	49.6	88	46.2	0	2	90	0.00	29.759 
01:05	49.4	49.4	49.4	88	46.0	0	1	90	0.00	29.759 
01:10	49.2	49.2	49.2	88	45.8	0	2	90	0.00	29.759 
01:15	48.9	48.9	48.9	88	45.5	0	1	90	0.00	29.760 
01:20	48.3	48.3	48.3	88	44.9	0	1	90	0.00	29.760 
01:25	47.9	47.9	47.9	88	44.5	0	1	90	0.00	29.760 
01:30	47.4	47.4	47.4	89	44.3	0	2	90	0.00	29.758 
01:35	47.0	47.0	47.0	89	43.9	0	1	90	0.00	29.758 
01:40	46.7	46.7	46.7	90	43.9	0	1	90	0.00	29.758 
01:45	46.5	46.5	46.5	91	44.0	0	0	---	0.00	29.750 
01:50	46.2	46.2	46.2	91	43.7	0	1	90	0.00	29.750 
01:55	46.1	46.1	46.1	92	43.9	0	0	---	0.00	29.750 
02:00	46.0	46.0	46.0	92	43.8	0	0	---	0.00	29.745 
02:05	45.8	45.8	45.8	92	43.6	0	1	90	0.00	29.745 
02:10	45.7	45.7	45.7	92	43.5	0	1	90	0.00	29.745 
02:15	45.4	45.4	45.4	92	43.2	0	0	---	0.00	29.745 
02:20	45.1	45.1	45.1	92	42.9	0	0	---	0.00	29.745 
02:25	44.6	44.6	44.6	92	42.4	0	0	---	0.00	29.745 
02:30	44.3	44.3	44.3	92	42.1	0	1	90	0.00	29.740 
02:35	44.3	44.3	44.3	92	42.1	0	1	90	0.00	29.740 
02:40	44.2	44.2	44.2	93	42.3	0	0	---	0.00	29.740 
02:45	44.2	44.2	44.2	93	42.3	0	0	---	0.00	29.748 
02:50	44.1	44.1	44.1	93	42.2	0	0	---	0.00	29.748 
02:55	43.9	43.9	43.9	93	42.0	0	0	---	0.00	29.748 
03:00	43.8	43.8	43.8	93	41.9	0	0	---	0.00	29.744 
03:05	43.3	43.3	43.3	93	41.4	0	0	---	0.00	29.744 
03:10	43.2	43.2	43.2	93	41.3	0	1	90	0.00	29.744 
03:15	43.1	43.1	43.1	93	41.2	0	1	90	0.00	29.736 
03:20	43.1	43.1	43.1	93	41.2	0	2	90	0.00	29.736 
03:25	43.2	43.2	43.2	94	41.6	0	0	---	0.00	29.736 
03:30	43.3	43.3	43.3	94	41.7	0	0	---	0.00	29.741 
03:35	43.2	43.2	43.2	94	41.6	0	0	---	0.00	29.741 
03:40	43.1	43.1	43.1	94	41.5	0	0	---	0.00	29.741 
03:45	43.1	43.1	43.1	94	41.5	0	0	---	0.00	29.744 
03:50	42.8	42.8	42.8	94	41.2	0	0	---	0.00	29.744 
03:55	42.6	42.6	42.6	94	41.0	0	0	---	0.00	29.744 
04:00	42.6	42.6	42.6	94	41.0	0	0	---	0.00	29.740 
04:05	42.6	42.6	42.6	95	41.3	0	0	---	0.00	29.740 
04:10	42.6	42.6	42.6	95	41.3	0	0	---	0.00	29.740 
04:15	42.6	42.6	42.6	94	41.0	0	0	---	0.00	29.739 
04:20	42.5	42.5	42.5	95	41.2	0	0	---	0.00	29.739 
04:25	42.5	42.5	42.5	95	41.2	0	0	---	0.00	29.739 
04:30	42.5	42.5	42.5	95	41.2	0	0	---	0.00	29.737 
04:35	42.5	42.5	42.5	95	41.2	0	0	---	0.00	29.737 
04:40	42.5	42.5	42.5	95	41.2	0	0	---	0.00	29.737 
04:45	42.3	42.3	42.3	95	41.0	0	0	---	0.00	29.742 
04:50	42.2	42.2	42.2	95	40.9	0	0	---	0.00	29.742 
04:55	42.2	42.2	42.2	95	40.9	0	0	---	0.00	29.742 
05:00	42.3	42.3	42.3	95	41.0	0	1	90	0.00	29.740 
05:05	42.5	42.5	42.5	95	41.2	0	0	---	0.00	29.740 
05:10	42.5	42.5	42.5	95	41.2	0	0	---	0.00	29.740 
05:15	42.3	42.3	42.3	95	41.0	0	0	---	0.00	29.742 
05:20	42.3	42.3	42.3	95	41.0	0	0	---	0.00	29.742 
05:25	42.3	42.3	42.3	95	41.0	0	0	---	0.00	29.742 
05:30	42.2	42.2	42.2	95	40.9	0	0	---	0.00	29.742 
05:35	42.1	42.1	42.1	95	40.8	0	0	---	0.00	29.742 
05:40	41.8	41.8	41.8	95	40.5	0	0	---	0.00	29.742 
05:45	41.5	41.5	41.5	95	40.2	0	0	---	0.00	29.750 
05:50	41.2	41.2	41.2	95	39.9	0	0	---	0.00	29.750 
05:55	40.9	40.9	40.9	95	39.6	0	0	---	0.00	29.750 
06:00	40.6	40.6	40.6	95	39.3	0	0	---	0.00	29.754 
06:05	40.5	40.5	40.5	95	39.2	0	0	---	0.00	29.754 
06:10	40.6	40.6	40.6	96	39.5	0	1	90	0.00	29.754 
06:15	41.2	41.2	41.2	96	40.1	0	1	90	0.00	29.753 
06:20	41.6	41.6	41.6	96	40.5	0	1	90	0.00	29.753 
06:25	42.2	42.2	42.2	96	41.1	0	2	90	0.00	29.753 
06:30	42.8	42.8	42.8	96	41.7	1	3	90	0.00	29.734 
06:35	43.1	43.1	43.1	96	42.0	1	4	90	0.00	29.734 
06:40	43.3	43.3	43.3	96	42.2	2	4	90	0.00	29.734 
06:45	43.5	43.5	43.5	96	42.4	2	4	90	0.00	29.733 
06:50	43.5	43.5	43.5	96	42.4	1	4	135	0.00	29.733 
06:55	43.6	43.6	43.6	96	42.5	1	4	90	0.00	29.733 
07:00	43.6	43.6	43.6	96	42.5	2	4	90	0.00	29.747 
07:05	43.6	43.6	43.6	96	42.5	1	3	90	0.00	29.747 
07:10	43.6	43.6	43.6	96	42.5	1	3	90	0.00	29.747 
07:15	43.6	43.6	43.6	96	42.5	1	3	90	0.00	29.753 
07:20	43.6	43.6	43.6	96	42.5	1	3	90	0.00	29.753 
07:25	43.5	43.5	43.5	96	42.4	1	3	90	0.00	29.753 
07:30	43.5	43.5	43.5	96	42.4	1	2	90	0.00	29.754 
07:35	43.6	43.6	43.6	96	42.5	1	3	90	0.00	29.754 
07:40	43.8	43.8	43.8	96	42.7	1	3	90	0.00	29.754 
07:45	43.8	43.8	43.8	96	42.7	1	3	90	0.00	29.755 
07:50	44.1	44.1	44.1	96	43.0	1	4	90	0.00	29.755 
07:55	44.2	44.2	44.2	96	43.1	2	5	90	0.00	29.755 
08:00	44.6	44.6	44.6	96	43.5	3	6	90	0.00	29.753 
08:05	44.8	44.8	44.8	96	43.7	2	5	90	0.00	29.753 
08:10	45.1	45.1	45.1	96	44.0	2	5	90	0.00	29.753 
08:15	45.4	45.4	45.4	96	44.3	2	4	90	0.00	29.755 
08:20	45.7	45.7	45.7	96	44.6	2	4	90	0.00	29.755 
08:25	46.2	46.2	46.2	96	45.1	1	4	90	0.00	29.755 
08:30	46.8	46.8	46.8	96	45.7	2	5	90	0.00	29.760 
08:35	47.1	47.1	47.1	96	46.0	1	5	112	0.00	29.760 
08:40	47.4	47.4	47.4	96	46.3	2	5	90	0.00	29.760 
08:45	47.7	47.7	47.7	96	46.6	3	7	90	0.00	29.768 
08:50	48.0	46.6	48.0	95	46.6	4	9	90	0.00	29.768 
08:55	48.3	48.3	48.3	94	46.7	3	5	90	0.00	29.768 
09:00	48.5	48.5	48.5	93	46.6	3	6	90	0.00	29.765 
09:05	48.9	48.9	48.9	93	47.0	3	8	112	0.00	29.765 
09:10	49.4	49.4	49.4	92	47.2	3	7	112	0.00	29.765 
09:15	49.9	49.9	49.9	92	47.7	2	6	112	0.00	29.756 
09:20	50.2	50.2	50.2	91	47.7	2	6	112	0.00	29.756 
09:25	50.5	50.5	50.5	91	48.0	2	5	90	0.00	29.756 
09:30	50.8	50.8	50.8	89	47.7	4	10	90	0.00	29.752 
09:35	51.1	51.1	51.1	89	48.0	3	10	90	0.00	29.752 
09:40	51.6	51.6	51.6	88	48.2	3	7	90	0.00	29.752 
09:45	52.0	52.0	52.0	87	48.3	4	7	112	0.00	29.740 
09:50	52.2	52.2	52.2	87	48.4	4	7	68	0.00	29.740 
09:55	52.5	52.5	52.5	86	48.4	3	7	112	0.00	29.740 
10:00	52.9	52.9	52.9	86	48.8	1	4	90	0.00	29.749 
10:05	53.3	53.3	53.3	85	48.9	1	5	112	0.00	29.749 
10:10	53.9	53.9	53.9	84	49.2	2	5	135	0.00	29.749 
10:15	54.2	54.2	54.2	83	49.1	2	6	112	0.00	29.752 
10:20	54.5	54.5	54.5	83	49.4	1	4	112	0.00	29.752 
10:25	54.7	54.7	54.7	83	49.6	1	3	135	0.00	29.752 
10:30	55.0	55.0	55.0	82	49.6	1	4	112	0.00	29.749 
10:35	55.3	55.3	55.3	81	49.6	2	4	135	0.00	29.749 
10:40	55.6	55.6	55.6	79	49.2	2	5	90	0.00	29.749 
10:45	55.9	55.9	55.9	79	49.5	2	6	112	0.00	29.746 
10:50	56.0	56.0	56.0	77	48.9	3	6	112	0.00	29.746 
10:55	56.3	56.3	56.3	77	49.2	2	5	135	0.00	29.746 
11:00	56.5	56.5	56.5	76	49.0	2	6	112	0.00	29.740 
11:05	56.5	56.5	56.5	76	49.0	3	7	90	0.00	29.740 
11:10	56.6	56.6	56.6	76	49.1	2	4	135	0.00	29.740 
11:15	56.7	56.7	56.7	76	49.2	2	6	112	0.00	29.734 
11:20	57.2	57.2	57.2	75	49.3	3	7	112	0.00	29.734 
11:25	58.1	58.1	58.1	73	49.5	4	14	112	0.00	29.734 
11:30	58.7	58.7	58.7	71	49.3	5	11	90	0.00	29.727 
11:35	59.2	59.2	59.2	70	49.4	3	11	90	0.00	29.727 
11:40	59.8	59.8	59.8	69	49.6	4	11	112	0.00	29.727 
11:45	60.5	60.5	60.5	67	49.5	6	15	90	0.00	29.715 
11:50	60.7	60.7	60.7	66	49.3	5	12	112	0.00	29.715 
11:55	60.4	60.4	60.4	67	49.4	5	14	90	0.00	29.715 
12:00	60.1	60.1	60.1	66	48.7	8	14	112	0.00	29.693 
12:05	60.1	60.1	60.1	68	49.5	6	15	112	0.00	29.693 
12:10	60.4	60.4	60.4	67	49.4	4	10	112	0.00	29.693 
12:15	60.7	60.7	60.7	66	49.3	5	13	90	0.00	29.686 
12:20	61.2	61.2	61.2	66	49.7	7	13	112	0.00	29.686 
12:25	61.2	61.2	61.2	66	49.7	5	11	90	0.00	29.686 
12:30	61.2	61.2	61.2	66	49.7	3	9	90	0.00	29.695 
12:35	61.5	61.5	61.5	67	50.4	4	8	90	0.00	29.695 
12:40	61.6	61.6	61.6	65	49.7	5	10	90	0.00	29.695 
12:45	61.5	61.5	61.5	65	49.6	4	10	90	0.00	29.680 
12:50	61.0	61.0	61.0	66	49.6	4	9	90	0.00	29.680 
12:55	60.9	60.9	60.9	67	49.9	3	8	112	0.00	29.680 
13:00	60.7	60.7	60.7	68	50.1	3	9	90	0.00	29.707 
13:05	60.7	60.7	60.7	68	50.1	3	7	112	0.00	29.707 
13:10	60.5	60.5	60.5	68	49.9	2	5	135	0.00	29.707 
13:15	60.5	60.5	60.5	69	50.3	3	6	90	0.00	29.700 
13:20	60.5	60.5	60.5	69	50.3	2	5	135	0.00	29.700 
13:25	60.5	60.5	60.5	69	50.3	2	6	90	0.00	29.700 
13:30	60.5	60.5	60.5	69	50.3	1	5	135	0.00	29.691 
13:35	60.4	60.4	60.4	70	50.6	2	5	112	0.00	29.691 
13:40	60.4	60.4	60.4	69	50.2	3	9	112	0.00	29.691 
13:45	60.2	60.2	60.2	69	50.0	2	5	112	0.00	29.686 
13:50	60.2	60.2	60.2	69	50.0	2	9	112	0.00	29.686 
13:55	60.1	60.1	60.1	69	49.9	3	12	90	0.00	29.686 
14:00	59.9	59.9	59.9	69	49.7	3	6	68	0.00	29.672 
14:05	59.8	59.8	59.8	70	50.0	1	5	135	0.00	29.672 
14:10	59.8	59.8	59.8	70	50.0	1	4	68	0.00	29.672 
14:15	59.8	59.8	59.8	71	50.4	1	4	112	0.00	29.677 
14:20	59.8	59.8	59.8	72	50.8	1	4	135	0.00	29.677 
14:25	59.8	59.8	59.8	72	50.8	2	5	90	0.00	29.677 
14:30	59.9	59.9	59.9	73	51.2	1	4	112	0.00	29.669 
14:35	60.1	60.1	60.1	73	51.4	1	4	68	0.00	29.669 
14:40	60.4	60.4	60.4	72	51.3	2	5	90	0.00	29.669 
14:45	60.4	60.4	60.4	71	50.9	3	7	90	0.00	29.669 
14:50	60.4	60.4	60.4	72	51.3	2	5	112	0.00	29.669 
14:55	60.4	60.4	60.4	72	51.3	4	7	112	0.00	29.669 
15:00	60.2	60.2	60.2	72	51.1	2	5	90	0.00	29.662 
15:05	60.2	60.2	60.2	72	51.1	1	4	112	0.00	29.662 
15:10	60.1	60.1	60.1	73	51.4	2	7	112	0.00	29.662 
15:15	60.1	60.1	60.1	73	51.4	2	5	90	0.00	29.670 
15:20	59.8	59.8	59.8	75	51.9	2	5	112	0.00	29.670 
15:25	59.6	59.6	59.6	76	52.0	1	4	112	0.00	29.670 
15:30	59.3	59.3	59.3	78	52.4	1	4	90	0.00	29.670 
15:35	59.2	59.2	59.2	80	53.0	2	5	112	0.00	29.670 
15:40	59.0	59.0	59.0	82	53.5	2	6	112	0.00	29.670 
15:45	58.7	58.7	58.7	83	53.5	1	4	135	0.00	29.664 
15:50	58.6	58.6	58.6	83	53.4	2	4	135	0.00	29.664 
15:55	58.4	58.4	58.4	84	53.6	1	3	135	0.00	29.664 
16:00	58.4	58.4	58.4	84	53.6	1	3	68	0.00	29.661 
16:05	58.4	58.4	58.4	83	53.3	2	5	90	0.00	29.661 
16:10	58.3	58.3	58.3	84	53.5	1	4	90	0.00	29.661 
16:15	58.3	58.3	58.3	84	53.5	1	3	90	0.00	29.662 
16:20	58.3	58.3	58.3	84	53.5	1	3	90	0.00	29.662 
16:25	58.1	58.1	58.1	85	53.6	1	4	90	0.00	29.662 
16:30	58.1	58.1	58.1	85	53.6	1	3	68	0.00	29.660 
16:35	58.0	58.0	58.0	86	53.8	1	4	68	0.00	29.660 
16:40	58.0	58.0	58.0	86	53.8	1	5	112	0.00	29.660 
16:45	57.8	57.8	57.8	86	53.6	1	3	112	0.00	29.657 
16:50	57.6	57.6	57.6	87	53.8	0	2	112	0.00	29.657 
16:55	57.5	57.5	57.5	87	53.7	1	4	112	0.00	29.657 
17:00	57.3	57.3	57.3	88	53.8	2	5	112	0.01	29.652 
17:05	57.3	57.3	57.3	88	53.8	1	3	112	0.00	29.652 
17:10	57.2	57.2	57.2	89	54.0	1	4	112	0.00	29.652 
17:15	57.0	57.0	57.0	89	53.8	2	4	112	0.00	29.658 
17:20	56.9	56.9	56.9	89	53.7	2	5	112	0.00	29.658 
17:25	56.7	56.7	56.7	90	53.8	1	3	112	0.00	29.658 
17:30	56.7	56.7	56.7	90	53.8	1	4	112	0.00	29.653 
17:35	56.7	56.7	56.7	90	53.8	1	3	112	0.00	29.653 
17:40	56.7	56.7	56.7	90	53.8	2	4	112	0.01	29.653 
17:45	56.7	56.7	56.7	90	53.8	2	5	112	0.00	29.652 
17:50	56.6	56.6	56.6	90	53.7	1	3	112	0.00	29.652 
17:55	56.6	56.6	56.6	91	54.0	3	6	90	0.00	29.652 
18:00	56.5	56.5	56.5	91	53.9	3	6	90	0.00	29.645 
18:05	56.3	56.3	56.3	91	53.7	3	5	90	0.00	29.645 
18:10	56.3	56.3	56.3	91	53.7	3	6	90	0.00	29.645 
18:15	56.3	56.3	56.3	90	53.4	3	6	90	0.00	29.641 
18:20	56.3	56.3	56.3	90	53.4	3	6	90	0.00	29.641 
18:25	56.3	56.3	56.3	90	53.4	4	7	90	0.00	29.641 
18:30	56.3	56.3	56.3	90	53.4	3	5	112	0.00	29.640 
18:35	56.3	56.3	56.3	90	53.4	3	6	90	0.00	29.640 
18:40	56.2	56.2	56.2	90	53.3	2	5	112	0.01	29.640 
18:45	56.0	56.0	56.0	91	53.4	3	6	112	0.00	29.642 
18:50	56.0	56.0	56.0	91	53.4	3	5	112	0.00	29.642 
18:55	55.9	55.9	55.9	91	53.3	2	6	90	0.00	29.642 
19:00	55.9	55.9	55.9	91	53.3	2	5	68	0.00	29.641 
19:05	55.7	55.7	55.7	91	53.1	2	4	112	0.00	29.641 
19:10	55.7	55.7	55.7	92	53.4	2	5	90	0.00	29.641 
19:15	55.6	55.6	55.6	92	53.3	3	6	112	0.00	29.641 
19:20	55.6	55.6	55.6	92	53.3	2	5	112	0.00	29.641 
19:25	55.4	55.4	55.4	92	53.1	2	6	112	0.00	29.641 
19:30	55.4	55.4	55.4	92	53.1	3	6	112	0.01	29.638 
19:35	55.3	55.3	55.3	92	53.0	2	5	112	0.00	29.638 
19:40	55.3	55.3	55.3	92	53.0	3	8	112	0.00	29.638 
19:45	55.1	55.1	55.1	92	52.8	2	5	112	0.00	29.642 
19:50	55.1	55.1	55.1	92	52.8	2	7	112	0.00	29.642 
19:55	55.1	55.1	55.1	92	52.8	2	5	112	0.00	29.642 
20:00	55.1	55.1	55.1	92	52.8	2	7	112	0.00	29.643 
20:05	55.1	55.1	55.1	92	52.8	3	7	112	0.00	29.643 
20:10	55.1	55.1	55.1	92	52.8	2	6	90	0.00	29.643 
20:15	55.0	55.0	55.0	92	52.7	3	10	90	0.00	29.639 
20:20	55.0	55.0	55.0	92	52.7	3	7	112	0.00	29.639 
20:25	55.0	55.0	55.0	92	52.7	3	6	112	0.00	29.639 
20:30	55.0	55.0	55.0	92	52.7	3	7	112	0.00	29.637 
20:35	54.8	54.8	54.8	92	52.5	3	6	112	0.00	29.637 
20:40	54.8	54.8	54.8	92	52.5	2	6	112	0.00	29.637 
20:45	54.7	54.7	54.7	92	52.4	2	5	112	0.00	29.639 
20:50	54.7	54.7	54.7	92	52.4	2	5	90	0.00	29.639 
20:55	54.7	54.7	54.7	92	52.4	2	8	90	0.00	29.639 
21:00	54.7	54.7	54.7	92	52.4	2	5	135	0.00	29.644 
21:05	54.5	54.5	54.5	92	52.2	2	5	68	0.00	29.644 
21:10	54.5	54.5	54.5	93	52.5	1	3	112	0.04	29.644 
21:15	54.5	54.5	54.5	93	52.5	2	4	112	0.03	29.640 
21:20	54.5	54.5	54.5	93	52.5	2	7	68	0.00	29.640 
21:25	54.5	54.5	54.5	93	52.5	2	5	90	0.00	29.640 
21:30	54.5	54.5	54.5	93	52.5	1	4	90	0.00	29.647 
21:35	54.4	54.4	54.4	93	52.4	1	4	90	0.01	29.647 
21:40	54.4	54.4	54.4	94	52.7	2	6	112	0.00	29.647 
21:45	54.2	54.2	54.2	94	52.5	1	3	112	0.00	29.650 
21:50	54.2	54.2	54.2	94	52.5	1	3	112	0.00	29.650 
21:55	54.1	54.1	54.1	94	52.4	1	4	112	0.00	29.650 
22:00	54.1	54.1	54.1	94	52.4	1	5	68	0.00	29.652 
22:05	53.9	53.9	53.9	94	52.2	1	3	112	0.00	29.652 
22:10	53.8	53.8	53.8	94	52.1	1	4	112	0.00	29.652 
22:15	53.6	53.6	53.6	94	51.9	1	2	135	0.00	29.649 
22:20	53.5	53.5	53.5	94	51.8	0	3	90	0.00	29.649 
22:25	53.3	53.3	53.3	94	51.6	1	4	135	0.00	29.649 
22:30	53.3	53.3	53.3	94	51.6	0	3	135	0.00	29.648 
22:35	53.2	53.2	53.2	94	51.5	0	2	135	0.00	29.648 
22:40	53.2	53.2	53.2	94	51.5	0	2	135	0.00	29.648 
22:45	53.1	53.1	53.1	94	51.4	0	1	135	0.00	29.649 
22:50	53.1	53.1	53.1	94	51.4	0	1	135	0.00	29.649 
22:55	52.9	52.9	52.9	94	51.2	0	2	135	0.00	29.649 
23:00	52.8	52.8	52.8	94	51.1	0	1	135	0.00	29.649 
23:05	52.6	52.6	52.6	94	50.9	0	2	135	0.00	29.649 
23:10	52.5	52.5	52.5	94	50.8	0	1	135	0.00	29.649 
23:15	52.3	52.3	52.3	94	50.6	0	1	135	0.00	29.649 
23:20	52.0	52.0	52.0	94	50.3	0	1	135	0.00	29.649 
23:25	51.9	51.9	51.9	94	50.2	0	1	135	0.00	29.649 
23:30	51.6	51.6	51.6	94	49.9	0	0	---	0.00	29.649 
23:35	51.4	51.4	51.4	94	49.7	0	0	---	0.00	29.649 
23:40	51.1	51.1	51.1	95	49.7	0	0	---	0.00	29.649 
23:45	51.1	51.1	51.1	95	49.7	0	1	135	0.00	29.653 
23:50	51.0	51.0	51.0	95	49.6	0	0	---	0.00	29.653 
23:55	50.5	50.5	50.5	94	48.8	0	1	135	0.00	29.653 

CoCoRaHS
IN-AL-39
A2 Web Hosting
Creative Commons License
GoDaddy
search engine by freefind advanced

loaded 2018-11-17 18:26:00 • last modified 2010-11-18 10:43:29
Privacy PolicyDisclaimer
• wx.awcolley.com is powered by PmWiki v.2002016 •
• all content (unless otherwise noted) © 2018 A W Colley